createdAt,value
2023-09-20T00:02:15.958Z,18.70
2023-09-20T00:04:44.561Z,18.70
2023-09-20T00:07:13.109Z,18.70
2023-09-20T00:09:43.750Z,18.70
2023-09-20T00:12:12.142Z,18.70
2023-09-20T00:14:40.329Z,18.70
2023-09-20T00:17:08.659Z,18.70
2023-09-20T00:19:39.719Z,18.60
2023-09-20T00:22:12.216Z,18.70
2023-09-20T00:24:41.979Z,18.80
2023-09-20T00:27:10.456Z,18.70
2023-09-20T00:29:39.055Z,18.70
2023-09-20T00:32:08.767Z,18.60
2023-09-20T00:34:37.922Z,18.60
2023-09-20T00:37:06.109Z,18.60
2023-09-20T00:39:34.322Z,18.60
2023-09-20T00:42:04.280Z,18.70
2023-09-20T00:44:32.510Z,18.60
2023-09-20T00:47:04.201Z,18.50
2023-09-20T00:49:34.095Z,18.50
2023-09-20T00:52:02.945Z,18.40
2023-09-20T00:54:31.574Z,18.50
2023-09-20T00:56:59.838Z,18.40
2023-09-20T00:59:33.999Z,18.40
2023-09-20T01:02:03.083Z,18.50
2023-09-20T01:04:31.628Z,18.50
2023-09-20T01:06:59.817Z,18.40
2023-09-20T01:09:27.969Z,18.30
2023-09-20T01:11:58.521Z,18.40
2023-09-20T01:14:28.855Z,18.30
2023-09-20T01:16:57.199Z,18.20
2023-09-20T01:19:25.427Z,18.20
2023-09-20T01:21:55.002Z,18.20
2023-09-20T01:24:25.258Z,18.10
2023-09-20T01:26:58.796Z,18.20
2023-09-20T01:29:26.864Z,18.20
2023-09-20T01:32:02.685Z,18.20
2023-09-20T01:34:31.288Z,18.20
2023-09-20T01:37:00.847Z,18.10
2023-09-20T01:39:29.508Z,18.10
2023-09-20T01:41:58.796Z,18.00
2023-09-20T01:44:29.029Z,18.00
2023-09-20T01:46:57.423Z,17.90
2023-09-20T01:49:25.914Z,17.90
2023-09-20T01:51:54.196Z,17.90
2023-09-20T01:54:23.900Z,17.90
2023-09-20T01:56:52.899Z,17.70
2023-09-20T01:59:22.671Z,17.70
2023-09-20T02:01:51.474Z,17.70
2023-09-20T02:04:22.048Z,17.70
2023-09-20T02:06:50.328Z,17.60
2023-09-20T02:09:19.765Z,17.60
2023-09-20T02:11:49.324Z,17.50
2023-09-20T02:14:17.617Z,17.50
2023-09-20T02:16:45.832Z,17.50
2023-09-20T02:19:14.928Z,17.40
2023-09-20T02:21:43.116Z,17.40
2023-09-20T02:24:11.294Z,17.40
2023-09-20T02:26:44.347Z,17.40
2023-09-20T02:29:14.068Z,17.40
2023-09-20T02:31:42.594Z,17.50
2023-09-20T02:34:12.943Z,17.40
2023-09-20T02:36:41.528Z,17.30
2023-09-20T02:39:13.642Z,17.30
2023-09-20T02:41:41.822Z,17.40
2023-09-20T02:44:10.382Z,17.50
2023-09-20T02:46:40.672Z,17.40
2023-09-20T02:49:09.149Z,17.30
2023-09-20T02:51:37.565Z,17.30
2023-09-20T02:54:06.870Z,17.40
2023-09-20T02:56:36.172Z,17.40
2023-09-20T02:59:07.820Z,17.40
2023-09-20T03:01:37.304Z,17.40
2023-09-20T03:04:07.562Z,17.40
2023-09-20T03:06:35.851Z,17.40
2023-09-20T03:09:04.878Z,17.30
2023-09-20T03:11:33.076Z,17.30
2023-09-20T03:14:05.006Z,17.40
2023-09-20T03:16:34.323Z,17.40
2023-09-20T03:19:03.827Z,17.40
2023-09-20T03:21:33.500Z,17.40
2023-09-20T03:24:01.884Z,17.30
2023-09-20T03:26:31.460Z,17.30
2023-09-20T03:28:59.821Z,17.20
2023-09-20T03:31:28.955Z,17.20
2023-09-20T03:33:57.470Z,17.30
2023-09-20T03:36:26.181Z,17.30
2023-09-20T03:38:59.102Z,17.30
2023-09-20T03:41:27.592Z,17.20
2023-09-20T03:43:57.504Z,17.20
2023-09-20T03:46:25.838Z,17.20
2023-09-20T03:48:54.644Z,17.20
2023-09-20T03:51:22.809Z,17.20
2023-09-20T03:53:51.488Z,17.10
2023-09-20T03:56:21.059Z,17.10
2023-09-20T03:58:49.430Z,17.10
2023-09-20T04:01:18.059Z,17.00
2023-09-20T04:03:46.982Z,16.90
2023-09-20T04:06:15.394Z,16.90
2023-09-20T04:08:44.128Z,16.90
2023-09-20T04:11:13.817Z,16.80
2023-09-20T04:13:43.436Z,16.80
2023-09-20T04:16:11.646Z,16.80
2023-09-20T04:18:40.026Z,16.80
2023-09-20T04:21:09.649Z,16.90
2023-09-20T04:23:37.916Z,16.90
2023-09-20T04:26:06.184Z,16.80
2023-09-20T04:28:34.442Z,16.80
2023-09-20T04:31:05.336Z,16.80
2023-09-20T04:33:34.449Z,16.90
2023-09-20T04:36:05.489Z,16.80
2023-09-20T04:38:33.698Z,16.80
2023-09-20T04:41:02.002Z,16.90
2023-09-20T04:43:32.151Z,16.80
2023-09-20T04:46:05.285Z,16.80
2023-09-20T04:48:35.173Z,16.70
2023-09-20T04:51:03.788Z,16.80
2023-09-20T04:53:32.076Z,16.80
2023-09-20T04:56:00.377Z,16.70
2023-09-20T04:58:28.683Z,16.60
2023-09-20T05:00:56.985Z,16.60
2023-09-20T05:03:25.484Z,16.60
2023-09-20T05:05:55.259Z,16.60
2023-09-20T05:08:23.600Z,16.60
2023-09-20T05:10:51.858Z,16.60
2023-09-20T05:13:20.421Z,16.70
2023-09-20T05:15:49.133Z,16.60
2023-09-20T05:18:17.437Z,16.60
2023-09-20T05:20:47.114Z,16.60
2023-09-20T05:23:16.814Z,16.60
2023-09-20T05:25:45.056Z,16.60
2023-09-20T05:28:16.430Z,16.60
2023-09-20T05:30:47.350Z,16.70
2023-09-20T05:33:17.181Z,16.70
2023-09-20T05:35:45.489Z,16.70
2023-09-20T05:38:13.799Z,16.80
2023-09-20T05:40:44.763Z,16.70
2023-09-20T05:43:13.294Z,16.70
2023-09-20T05:45:42.327Z,16.80
2023-09-20T05:48:11.609Z,16.90
2023-09-20T05:50:39.954Z,16.80
2023-09-20T05:53:12.186Z,16.80
2023-09-20T05:55:45.106Z,16.80
2023-09-20T05:58:13.898Z,16.70
2023-09-20T06:00:42.557Z,16.80
2023-09-20T06:03:13.086Z,16.80
2023-09-20T06:05:42.186Z,16.90
2023-09-20T06:08:12.823Z,16.90
2023-09-20T06:10:42.659Z,16.90
2023-09-20T06:13:11.447Z,16.90
2023-09-20T06:15:40.333Z,17.00
2023-09-20T06:18:10.224Z,17.00
2023-09-20T06:20:47.055Z,17.10
2023-09-20T06:23:16.100Z,17.20
2023-09-20T06:25:48.047Z,17.20
2023-09-20T06:28:16.899Z,17.40
2023-09-20T06:30:45.255Z,17.50
2023-09-20T06:33:15.116Z,17.50
2023-09-20T06:35:44.684Z,17.60
2023-09-20T06:38:13.105Z,17.50
2023-09-20T06:40:41.406Z,17.50
2023-09-20T06:43:11.077Z,17.60
2023-09-20T06:45:39.230Z,17.60
2023-09-20T06:48:08.350Z,17.60
2023-09-20T06:50:36.925Z,17.60
2023-09-20T06:53:06.105Z,17.60
2023-09-20T06:55:34.529Z,17.50
2023-09-20T07:00:38.689Z,17.60
2023-09-20T07:03:07.288Z,17.60
2023-09-20T07:05:35.631Z,17.60
2023-09-20T07:08:06.201Z,17.60
2023-09-20T07:10:34.870Z,17.70
2023-09-20T07:13:07.274Z,17.70
2023-09-20T07:15:37.026Z,17.80
2023-09-20T07:18:13.344Z,17.80
2023-09-20T07:20:43.357Z,17.90
2023-09-20T07:23:13.923Z,17.80
2023-09-20T07:25:44.149Z,17.80
2023-09-20T07:28:12.798Z,18.00
2023-09-20T07:30:46.089Z,18.10
2023-09-20T07:33:20.889Z,18.10
2023-09-20T07:35:51.407Z,18.20
2023-09-20T07:38:21.921Z,18.30
2023-09-20T07:40:52.053Z,18.30
2023-09-20T07:43:29.235Z,18.30
2023-09-20T07:45:57.958Z,18.30
2023-09-20T07:48:32.034Z,18.40
2023-09-20T07:51:00.816Z,18.50
2023-09-20T07:53:29.765Z,18.60
2023-09-20T07:56:02.999Z,18.50
2023-09-20T07:58:31.884Z,18.50
2023-09-20T08:01:00.802Z,18.60
2023-09-20T08:03:33.779Z,18.70
2023-09-20T08:06:03.001Z,18.70
2023-09-20T08:08:31.273Z,18.80
2023-09-20T08:11:13.155Z,18.90
2023-09-20T08:13:42.949Z,18.90
2023-09-20T08:16:13.983Z,18.90
2023-09-20T08:19:01.160Z,18.90
2023-09-20T08:21:30.827Z,18.90
2023-09-20T08:24:16.440Z,19.00
2023-09-20T08:27:01.899Z,19.00
2023-09-20T08:29:47.423Z,19.10
2023-09-20T08:32:33.003Z,19.30
2023-09-20T08:35:19.874Z,19.40
2023-09-20T08:38:07.235Z,19.50
2023-09-20T08:40:52.744Z,19.50
2023-09-20T08:43:39.453Z,19.60
2023-09-20T08:46:26.066Z,19.60
2023-09-20T08:49:12.610Z,19.70
2023-09-20T08:52:07.726Z,19.80
2023-09-20T08:54:56.776Z,19.90
2023-09-20T08:57:43.995Z,19.90
2023-09-20T09:00:22.787Z,19.90
2023-09-20T09:02:54.229Z,20.00
2023-09-20T09:05:24.571Z,20.10
2023-09-20T09:07:54.535Z,20.20
2023-09-20T09:10:23.132Z,20.20
2023-09-20T09:12:51.410Z,20.40
2023-09-20T09:15:19.736Z,20.40
2023-09-20T09:17:49.191Z,20.40
2023-09-20T09:20:20.306Z,20.40
2023-09-20T09:22:49.295Z,20.30
2023-09-20T09:25:20.934Z,20.30
2023-09-20T09:27:49.180Z,20.30
2023-09-20T09:30:19.139Z,20.50
2023-09-20T09:32:49.527Z,20.70
2023-09-20T09:37:52.728Z,21.00
2023-09-20T09:40:23.267Z,21.10
2023-09-20T09:42:51.558Z,21.20
2023-09-20T09:45:32.377Z,21.20
2023-09-20T09:48:05.885Z,21.30
2023-09-20T09:50:39.919Z,21.40
2023-09-20T09:53:10.050Z,21.40
2023-09-20T09:55:40.614Z,21.50
2023-09-20T09:58:10.619Z,21.40
2023-09-20T10:00:41.990Z,21.40
2023-09-20T10:03:17.605Z,21.30
2023-09-20T10:05:48.257Z,21.20
2023-09-20T10:08:18.828Z,21.20
2023-09-20T10:10:48.425Z,21.20
2023-09-20T10:13:18.760Z,21.20
2023-09-20T10:15:47.253Z,21.10
2023-09-20T10:18:15.670Z,21.20
2023-09-20T10:21:06.149Z,21.20
2023-09-20T10:23:38.620Z,21.20
2023-09-20T10:26:14.921Z,21.20
2023-09-20T10:28:44.241Z,21.20
2023-09-20T10:31:17.005Z,21.20
2023-09-20T10:33:49.548Z,21.30
2023-09-20T10:36:22.126Z,21.30
2023-09-20T10:38:50.913Z,21.30
2023-09-20T10:41:20.545Z,21.20
2023-09-20T10:43:50.756Z,21.30
2023-09-20T10:46:21.192Z,21.30
2023-09-20T10:48:53.189Z,21.40
2023-09-20T10:51:50.280Z,21.30
2023-09-20T10:54:23.775Z,21.30
2023-09-20T10:57:07.657Z,21.30
2023-09-20T10:59:37.922Z,21.20
2023-09-20T11:02:11.284Z,21.20
2023-09-20T11:04:40.670Z,21.10
2023-09-20T11:07:09.463Z,21.00
2023-09-20T11:09:39.742Z,21.00
2023-09-20T11:12:10.093Z,21.00
2023-09-20T11:14:42.095Z,21.20
2023-09-20T11:17:14.818Z,21.20
2023-09-20T11:19:43.383Z,21.30
2023-09-20T11:22:11.611Z,21.40
2023-09-20T11:24:43.967Z,21.50
2023-09-20T11:27:15.674Z,21.60
2023-09-20T11:29:45.563Z,21.70
2023-09-20T11:32:16.455Z,21.80
2023-09-20T11:34:49.581Z,21.60
2023-09-20T11:37:20.007Z,21.50
2023-09-20T11:39:48.949Z,21.50
2023-09-20T11:42:29.036Z,21.50
2023-09-20T11:45:11.621Z,21.50
2023-09-20T11:47:49.555Z,21.60
2023-09-20T11:50:18.792Z,21.50
2023-09-20T11:52:48.551Z,21.40
2023-09-20T11:55:17.967Z,21.50
2023-09-20T11:57:48.412Z,21.50
2023-09-20T12:00:18.987Z,21.50
2023-09-20T12:02:48.667Z,21.40
2023-09-20T12:05:20.504Z,21.40
2023-09-20T12:07:56.649Z,21.40
2023-09-20T12:10:26.291Z,21.60
2023-09-20T12:12:56.708Z,21.80
2023-09-20T12:15:26.013Z,21.80
2023-09-20T12:17:56.950Z,22.00
2023-09-20T12:20:27.091Z,21.90
2023-09-20T12:22:57.065Z,22.10
2023-09-20T12:25:25.761Z,22.30
2023-09-20T12:27:55.515Z,22.50
2023-09-20T12:30:29.744Z,22.50
2023-09-20T12:32:59.735Z,22.70
2023-09-20T12:35:31.325Z,22.70
2023-09-20T12:37:59.741Z,22.70
2023-09-20T12:40:28.772Z,22.70
2023-09-20T12:43:02.384Z,22.60
2023-09-20T12:45:30.715Z,22.50
2023-09-20T12:47:59.019Z,22.60
2023-09-20T12:50:27.264Z,22.70
2023-09-20T12:52:57.301Z,22.90
2023-09-20T12:55:26.392Z,23.00
2023-09-20T12:57:54.681Z,23.10
2023-09-20T13:00:38.592Z,22.90
2023-09-20T13:03:13.311Z,22.70
2023-09-20T13:05:44.379Z,22.50
2023-09-20T13:08:14.605Z,22.30
2023-09-20T13:10:43.128Z,22.10
2023-09-20T13:13:11.804Z,22.00
2023-09-20T13:15:43.692Z,21.90
2023-09-20T13:18:13.277Z,22.00
2023-09-20T13:20:43.073Z,22.00
2023-09-20T13:23:11.943Z,22.00
2023-09-20T13:25:44.549Z,22.00
2023-09-20T13:28:13.768Z,22.00
2023-09-20T13:30:43.841Z,21.80
2023-09-20T13:33:13.894Z,21.80
2023-09-20T13:35:42.802Z,21.70
2023-09-20T13:38:12.924Z,21.80
2023-09-20T13:40:41.953Z,21.80
2023-09-20T13:43:14.096Z,21.90
2023-09-20T13:45:44.396Z,22.00
2023-09-20T13:48:14.708Z,22.10
2023-09-20T13:50:44.006Z,22.20
2023-09-20T13:53:12.828Z,22.20
2023-09-20T13:55:41.047Z,22.20
2023-09-20T13:58:10.889Z,22.30
2023-09-20T14:00:39.429Z,22.30
2023-09-20T14:03:09.913Z,22.30
2023-09-20T14:05:39.298Z,22.40
2023-09-20T14:08:09.178Z,22.50
2023-09-20T14:10:39.123Z,22.50
2023-09-20T14:13:07.731Z,22.50
2023-09-20T14:15:35.966Z,22.50
2023-09-20T14:18:04.916Z,22.30
2023-09-20T14:20:34.684Z,22.20
2023-09-20T14:23:03.602Z,22.10
2023-09-20T14:25:31.835Z,22.10
2023-09-20T14:28:00.030Z,22.00
2023-09-20T14:30:28.515Z,21.90
2023-09-20T14:32:57.243Z,21.90
2023-09-20T14:35:26.442Z,21.80
2023-09-20T14:37:56.793Z,21.70
2023-09-20T14:40:27.714Z,21.80
2023-09-20T14:42:57.152Z,21.80
2023-09-20T14:45:27.428Z,21.80
2023-09-20T14:47:56.815Z,21.80
2023-09-20T14:50:27.042Z,21.80
2023-09-20T14:52:57.982Z,21.80
2023-09-20T14:55:30.358Z,21.80
2023-09-20T14:58:00.083Z,21.90
2023-09-20T15:00:31.815Z,21.90
2023-09-20T15:03:01.729Z,21.90
2023-09-20T15:05:30.646Z,21.80
2023-09-20T15:08:00.937Z,22.00
2023-09-20T15:10:30.247Z,22.30
2023-09-20T15:13:02.685Z,22.60
2023-09-20T15:15:33.280Z,22.90
2023-09-20T15:18:02.267Z,23.20
2023-09-20T15:20:31.210Z,23.30
2023-09-20T15:23:01.922Z,23.30
2023-09-20T15:25:30.876Z,23.30
2023-09-20T15:28:00.295Z,23.20
2023-09-20T15:30:31.428Z,23.00
2023-09-20T15:33:00.299Z,23.10
2023-09-20T15:35:28.784Z,23.10
2023-09-20T15:37:57.991Z,23.00
2023-09-20T15:40:29.704Z,23.00
2023-09-20T15:42:59.535Z,23.00
2023-09-20T15:45:29.747Z,22.90
2023-09-20T15:47:58.322Z,22.90
2023-09-20T15:50:29.386Z,22.60
2023-09-20T15:52:58.999Z,22.60
2023-09-20T15:55:30.617Z,22.60
2023-09-20T15:57:59.209Z,22.60
2023-09-20T16:00:27.808Z,22.50
2023-09-20T16:02:56.274Z,22.60
2023-09-20T16:05:24.685Z,22.60
2023-09-20T16:07:52.942Z,22.60
2023-09-20T16:10:22.814Z,22.50
2023-09-20T16:12:52.441Z,22.40
2023-09-20T16:15:23.222Z,22.50
2023-09-20T16:17:54.454Z,22.40
2023-09-20T16:20:23.715Z,22.40
2023-09-20T16:22:52.012Z,22.40
2023-09-20T16:25:20.187Z,22.50
2023-09-20T16:27:48.468Z,22.50
2023-09-20T16:30:21.335Z,22.50
2023-09-20T16:32:49.904Z,22.40
2023-09-20T16:35:19.105Z,22.40
2023-09-20T16:37:47.604Z,22.40
2023-09-20T16:40:16.398Z,22.50
2023-09-20T16:42:45.312Z,22.50
2023-09-20T16:45:15.545Z,22.40
2023-09-20T16:47:46.413Z,22.30
2023-09-20T16:50:15.194Z,22.30
2023-09-20T16:52:43.395Z,22.20
2023-09-20T16:55:13.235Z,22.20
2023-09-20T16:57:41.630Z,22.10
2023-09-20T17:00:12.739Z,22.20
2023-09-20T17:02:42.047Z,22.10
2023-09-20T17:05:16.741Z,22.00
2023-09-20T17:07:45.515Z,21.90
2023-09-20T17:10:17.139Z,21.90
2023-09-20T17:12:46.901Z,21.90
2023-09-20T17:15:17.078Z,21.80
2023-09-20T17:17:45.662Z,21.80
2023-09-20T17:20:15.476Z,21.60
2023-09-20T17:22:44.005Z,21.60
2023-09-20T17:25:14.271Z,21.60
2023-09-20T17:27:46.410Z,21.50
2023-09-20T17:30:18.913Z,21.30
2023-09-20T17:32:49.262Z,21.40
2023-09-20T17:35:19.874Z,21.30
2023-09-20T17:37:48.422Z,21.30
2023-09-20T17:40:21.406Z,21.30
2023-09-20T17:42:50.951Z,21.20
2023-09-20T17:45:19.856Z,21.20
2023-09-20T17:47:49.700Z,21.20
2023-09-20T17:50:19.559Z,21.10
2023-09-20T17:52:49.781Z,21.10
2023-09-20T17:55:19.054Z,21.00
2023-09-20T17:57:50.360Z,21.00
2023-09-20T18:00:25.624Z,21.00
2023-09-20T18:02:56.569Z,21.00
2023-09-20T18:05:29.830Z,20.80
2023-09-20T18:07:58.031Z,20.90
2023-09-20T18:10:26.360Z,20.90
2023-09-20T18:12:54.795Z,20.90
2023-09-20T18:15:23.070Z,20.80
2023-09-20T18:17:51.601Z,20.70
2023-09-20T18:20:21.222Z,20.70
2023-09-20T18:22:51.674Z,20.70
2023-09-20T18:25:21.136Z,20.70
2023-09-20T18:27:51.826Z,20.60
2023-09-20T18:30:20.407Z,20.70
2023-09-20T18:32:53.321Z,20.70
2023-09-20T18:35:21.651Z,20.70
2023-09-20T18:37:51.294Z,20.70
2023-09-20T18:40:19.799Z,20.60
2023-09-20T18:42:48.891Z,20.60
2023-09-20T18:45:17.260Z,20.40
2023-09-20T18:47:46.207Z,20.30
2023-09-20T18:50:18.714Z,20.40
2023-09-20T18:52:48.281Z,20.40
2023-09-20T18:55:18.228Z,20.40
2023-09-20T18:57:53.922Z,20.50
2023-09-20T19:00:23.382Z,20.50
2023-09-20T19:02:52.454Z,20.40
2023-09-20T19:05:20.822Z,20.50
2023-09-20T19:07:49.376Z,20.50
2023-09-20T19:10:19.366Z,20.40
2023-09-20T19:12:47.577Z,20.40
2023-09-20T19:15:16.900Z,20.40
2023-09-20T19:17:45.755Z,20.50
2023-09-20T19:20:19.105Z,20.40
2023-09-20T19:22:47.466Z,20.20
2023-09-20T19:25:18.672Z,20.30
2023-09-20T19:27:49.525Z,20.30
2023-09-20T19:30:19.705Z,20.30
2023-09-20T19:32:48.874Z,20.30
2023-09-20T19:35:18.532Z,20.10
2023-09-20T19:37:46.932Z,20.10
2023-09-20T19:40:20.824Z,20.10
2023-09-20T19:42:51.769Z,20.10
2023-09-20T19:45:21.427Z,20.10
2023-09-20T19:47:50.191Z,20.00
2023-09-20T19:50:23.232Z,20.00
2023-09-20T19:52:51.772Z,20.00
2023-09-20T19:55:25.673Z,19.90
2023-09-20T19:57:57.376Z,20.00
2023-09-20T20:00:26.846Z,20.00
2023-09-20T20:02:56.501Z,20.00
2023-09-20T20:05:26.275Z,20.00
2023-09-20T20:07:56.522Z,20.00
2023-09-20T20:10:25.223Z,19.90
2023-09-20T20:12:53.596Z,19.80
2023-09-20T20:15:23.908Z,19.90
2023-09-20T20:17:56.016Z,20.00
2023-09-20T20:20:29.160Z,19.90
2023-09-20T20:22:58.202Z,19.90
2023-09-20T20:25:28.809Z,20.00
2023-09-20T20:28:02.820Z,20.00
2023-09-20T20:30:32.989Z,20.00
2023-09-20T20:33:01.517Z,20.00
2023-09-20T20:35:29.888Z,20.10
2023-09-20T20:37:58.387Z,20.10
2023-09-20T20:40:27.229Z,20.20
2023-09-20T20:42:56.248Z,20.10
2023-09-20T20:45:24.453Z,20.10
2023-09-20T20:47:55.583Z,20.00
2023-09-20T20:50:28.019Z,20.00
2023-09-20T20:52:59.125Z,20.00
2023-09-20T20:55:29.563Z,20.10
2023-09-20T20:58:01.595Z,20.10
2023-09-20T21:00:31.322Z,20.20
2023-09-20T21:03:08.988Z,20.10
2023-09-20T21:05:38.009Z,20.10
2023-09-20T21:08:08.300Z,20.00
2023-09-20T21:10:39.638Z,20.00
2023-09-20T21:13:11.186Z,20.00
2023-09-20T21:15:40.045Z,20.10
2023-09-20T21:18:13.061Z,20.10
2023-09-20T21:20:41.865Z,20.10
2023-09-20T21:23:13.366Z,20.10
2023-09-20T21:25:41.849Z,20.10
2023-09-20T21:28:10.206Z,20.10
2023-09-20T21:30:39.468Z,20.00
2023-09-20T21:33:10.557Z,19.90
2023-09-20T21:35:39.311Z,20.00
2023-09-20T21:38:08.799Z,20.00
2023-09-20T21:40:39.307Z,20.10
2023-09-20T21:43:09.002Z,20.00
2023-09-20T21:45:37.731Z,20.00
2023-09-20T21:48:07.659Z,19.90
2023-09-20T21:50:39.488Z,19.80
2023-09-20T21:53:08.488Z,19.80
2023-09-20T21:55:36.656Z,19.80
2023-09-20T21:58:05.260Z,19.70
2023-09-20T22:00:38.071Z,19.90
2023-09-20T22:03:08.962Z,19.80
2023-09-20T22:05:38.895Z,19.90
2023-09-20T22:08:10.388Z,19.90
2023-09-20T22:10:46.421Z,19.90
2023-09-20T22:13:15.755Z,19.90
2023-09-20T22:15:46.130Z,19.80
2023-09-20T22:18:20.098Z,20.00
2023-09-20T22:20:53.870Z,20.00
2023-09-20T22:23:24.040Z,20.00
2023-09-20T22:25:53.586Z,20.00
2023-09-20T22:28:21.933Z,20.00
2023-09-20T22:30:50.129Z,19.90
2023-09-20T22:33:19.073Z,19.90
2023-09-20T22:36:03.646Z,19.90
2023-09-20T22:38:38.290Z,19.80
2023-09-20T22:41:06.556Z,19.90
2023-09-20T22:43:35.296Z,19.90
2023-09-20T22:46:04.203Z,20.00
2023-09-20T22:48:33.625Z,20.00
2023-09-20T22:51:05.024Z,19.90
2023-09-20T22:53:33.785Z,19.90
2023-09-20T22:56:08.138Z,20.10
2023-09-20T22:58:36.617Z,20.10
2023-09-20T23:01:06.836Z,20.10
2023-09-20T23:03:35.567Z,20.10
2023-09-20T23:06:06.496Z,20.10
2023-09-20T23:08:36.030Z,20.20
2023-09-20T23:11:10.595Z,20.20
2023-09-20T23:13:40.855Z,20.30
2023-09-20T23:16:17.213Z,20.40
2023-09-20T23:18:47.082Z,20.50
2023-09-20T23:21:18.557Z,20.50
2023-09-20T23:23:49.339Z,20.50
2023-09-20T23:26:18.448Z,20.60
2023-09-20T23:28:46.964Z,20.60
2023-09-20T23:31:16.953Z,20.50
2023-09-20T23:33:47.689Z,20.60
2023-09-20T23:36:17.491Z,20.60
2023-09-20T23:38:46.423Z,20.70
2023-09-20T23:41:17.432Z,20.70
2023-09-20T23:43:46.516Z,20.70
2023-09-20T23:46:21.644Z,20.80
2023-09-20T23:48:52.141Z,20.70
2023-09-20T23:51:22.574Z,20.70
2023-09-20T23:53:53.173Z,20.70
2023-09-20T23:56:23.317Z,20.70
2023-09-20T23:58:52.532Z,20.70
